Time;durP1;ratioP1;P1;durP2;ratioP2;P2;SDS_P1;SDS_P2;PMS_P1;PMS_P2;Temp;Humidity;BMP_temperature;BMP_pressure;BME280_temperature;BME280_humidity;BME280_pressure;Samples;Min_cycle;Max_cycle;Signal;HPM_P1;HPM_P2
2024/01/13 00:01:24;;;;;;;;;;;;;;;7.00;100.00;100856.66;4975423;28;20334;-80
2024/01/13 00:03:49;;;;;;;;;;;;;;;7.03;100.00;100854.00;4974167;28;20343;-79
2024/01/13 00:06:15;;;;;;;;;;;;;;;7.06;100.00;100848.69;4974910;28;20369;-83
2024/01/13 00:08:40;;;;;;;;;;;;;;;7.06;100.00;100848.69;4975333;28;20634;-83
2024/01/13 00:11:06;;;;;;;;;;;;;;;7.09;100.00;100853.94;4960226;28;19919;-78
2024/01/13 00:13:31;;;;;;;;;;;;;;;7.11;100.00;100847.78;4954629;28;19973;-77
2024/01/13 00:15:56;;;;;;;;;;;;;;;7.11;100.00;100847.78;4955866;28;19926;-80
2024/01/13 00:18:22;;;;;;;;;;;;;;;7.14;100.00;100842.47;4954482;28;19918;-81
2024/01/13 00:20:47;;;;;;;;;;;;;;;7.15;100.00;100841.56;4954890;28;19927;-78
2024/01/13 00:23:12;;;;;;;;;;;;;;;7.14;100.00;100824.03;4954131;28;19962;-81
2024/01/13 00:25:38;;;;;;;;;;;;;;;7.18;100.00;100828.34;4955069;29;19982;-83
2024/01/13 00:28:03;;;;;;;;;;;;;;;7.17;100.00;100824.00;4954408;28;20406;-82
2024/01/13 00:30:28;;;;;;;;;;;;;;;7.21;100.00;100828.31;4955179;28;19918;-80
2024/01/13 00:32:53;;;;;;;;;;;;;;;7.23;100.00;100827.41;4953927;28;19922;-77
2024/01/13 00:35:19;;;;;;;;;;;;;;;7.22;100.00;100825.66;4955351;28;20781;-80
2024/01/13 00:37:44;;;;;;;;;;;;;;;7.25;100.00;100827.41;4953879;28;20376;-81
2024/01/13 00:40:12;;;;;;;;;;;;;;;7.25;100.00;100822.13;4952413;28;19927;-78
2024/01/13 00:42:37;;;;;;;;;;;;;;;7.28;100.00;100814.19;4954995;28;20319;-78
2024/01/13 00:45:03;;;;;;;;;;;;;;;7.28;100.00;100820.31;4953150;28;19919;-83
2024/01/13 00:47:28;;;;;;;;;;;;;;;7.30;100.00;100812.38;4953704;28;20465;-78
2024/01/13 00:49:53;;;;;;;;;;;;;;;6.98;100.00;100812.78;4954026;28;19918;-78
2024/01/13 00:52:19;;;;;;;;;;;;;;;6.22;100.00;100805.63;4954953;28;19929;-77
2024/01/13 00:54:44;;;;;;;;;;;;;;;5.97;100.00;100802.38;4951314;28;20462;-76
2024/01/13 00:57:09;;;;;;;;;;;;;;;5.80;100.00;100805.94;4954453;29;20259;-78
2024/01/13 00:59:35;;;;;;;;;;;;;;;5.63;100.00;100800.81;4951599;28;20370;-77
2024/01/13 01:02:00;;;;;;;;;;;;;;;5.58;100.00;100806.97;4953677;28;20389;-79
2024/01/13 01:04:25;;;;;;;;;;;;;;;5.44;100.00;100801.78;4953719;28;20293;-77
2024/01/13 01:06:50;;;;;;;;;;;;;;;5.39;100.00;100798.31;4953726;28;20009;-80
2024/01/13 01:09:16;;;;;;;;;;;;;;;5.34;100.00;100794.84;4953638;29;19929;-77
2024/01/13 01:11:42;;;;;;;;;;;;;;;5.28;100.00;100796.63;4952886;29;20042;-84
2024/01/13 01:14:07;;;;;;;;;;;;;;;5.27;100.00;100796.63;4954949;28;19961;-76
2024/01/13 01:16:33;;;;;;;;;;;;;;;5.22;100.00;100795.78;4953554;29;19965;-77
2024/01/13 01:18:58;;;;;;;;;;;;;;;5.14;100.00;100793.19;4952909;28;20005;-77
2024/01/13 01:21:24;;;;;;;;;;;;;;;5.11;100.00;100793.19;4954575;28;19930;-76
2024/01/13 01:23:49;;;;;;;;;;;;;;;5.07;100.00;100796.72;4954844;28;20309;-76
2024/01/13 01:26:14;;;;;;;;;;;;;;;5.03;100.00;100797.63;4954692;28;19923;-76
2024/01/13 01:28:39;;;;;;;;;;;;;;;5.06;100.00;100787.97;4954700;28;19918;-76
2024/01/13 01:31:05;;;;;;;;;;;;;;;5.05;100.00;100795.84;4954461;28;19922;-76
2024/01/13 01:33:30;;;;;;;;;;;;;;;4.99;100.00;100798.50;4953043;29;20021;-77
2024/01/13 01:35:55;;;;;;;;;;;;;;;5.00;100.00;100795.00;4954587;28;20297;-77
2024/01/13 01:38:20;;;;;;;;;;;;;;;5.01;100.00;100788.84;4954403;28;19922;-77
2024/01/13 01:40:52;;;;;;;;;;;;;;;4.91;100.00;100788.91;4954546;28;19922;-77
2024/01/13 01:43:17;;;;;;;;;;;;;;;4.88;100.00;100786.28;4953986;28;19978;-76
2024/01/13 01:45:42;;;;;;;;;;;;;;;4.89;100.00;100785.41;4954401;29;20330;-76
2024/01/13 01:48:07;;;;;;;;;;;;;;;4.83;100.00;100788.03;4953226;28;20537;-76
2024/01/13 01:50:33;;;;;;;;;;;;;;;4.83;100.00;100785.41;4954166;28;20337;-77
2024/01/13 01:52:58;;;;;;;;;;;;;;;4.79;100.00;100775.81;4954242;28;19938;-77
2024/01/13 01:55:23;;;;;;;;;;;;;;;4.76;100.00;100783.69;4954102;29;19957;-76
2024/01/13 01:57:50;;;;;;;;;;;;;;;4.78;100.00;100778.44;4954306;28;19934;-76
2024/01/13 02:00:17;;;;;;;;;;;;;;;4.73;100.00;100776.69;4953582;29;19918;-76
2024/01/13 02:02:43;;;;;;;;;;;;;;;4.71;100.00;100777.59;4953385;28;19919;-75
2024/01/13 02:05:09;;;;;;;;;;;;;;;4.73;100.00;100768.81;4953901;28;20366;-77
2024/01/13 02:07:34;;;;;;;;;;;;;;;4.74;100.00;100767.09;4952623;28;20373;-76
2024/01/13 02:10:00;;;;;;;;;;;;;;;4.67;100.00;100762.72;4952672;28;19974;-76
2024/01/13 02:12:25;;;;;;;;;;;;;;;4.72;100.00;100758.31;4952465;28;19973;-78
2024/01/13 06:19:28;;;;;;;;;;;;;;;6.16;100.00;100609.22;4924109;29;19938;-81
2024/01/13 06:21:53;;;;;;;;;;;;;;;6.20;100.00;100599.50;4926099;29;19922;-79
2024/01/13 06:24:18;;;;;;;;;;;;;;;6.24;100.00;100598.59;4925517;29;19927;-81
2024/01/13 06:26:43;;;;;;;;;;;;;;;6.27;100.00;100605.56;4924954;29;19919;-78
2024/01/13 06:29:09;;;;;;;;;;;;;;;6.31;100.00;100608.16;4925522;29;20014;-78
2024/01/13 06:31:34;;;;;;;;;;;;;;;6.34;100.00;100600.22;4923630;29;20078;-77
2024/01/13 06:34:00;;;;;;;;;;;;;;;6.37;100.00;100591.41;4925510;29;19923;-79
2024/01/13 06:36:25;;;;;;;;;;;;;;;6.42;100.00;100588.72;4924991;29;20264;-81
2024/01/13 06:38:50;;;;;;;;;;;;;;;6.45;100.00;100580.81;4925472;29;19919;-82
2024/01/13 06:41:16;;;;;;;;;;;;;;;6.48;100.00;100584.25;4908335;29;20100;-81
2024/01/13 06:43:41;;;;;;;;;;;;;;;6.50;100.00;100576.34;4925156;29;19919;-78
2024/01/13 06:46:06;;;;;;;;;;;;;;;6.52;100.00;100591.19;4923632;29;19923;-78
2024/01/13 06:48:32;;;;;;;;;;;;;;;6.57;100.00;100577.97;4925229;29;20017;-77
2024/01/13 06:50:57;;;;;;;;;;;;;;;6.57;100.00;100571.84;4925388;29;19927;-81
2024/01/13 06:53:22;;;;;;;;;;;;;;;6.60;100.00;100567.41;4925235;29;19927;-77
2024/01/13 06:55:47;;;;;;;;;;;;;;;6.64;100.00;100573.53;4925676;29;20305;-77
2024/01/13 06:58:13;;;;;;;;;;;;;;;6.67;100.00;100571.69;4925191;29;20301;-77
2024/01/13 07:00:39;;;;;;;;;;;;;;;6.69;100.00;100563.78;4925549;29;19982;-77
2024/01/13 07:03:04;;;;;;;;;;;;;;;6.71;100.00;100557.59;4924141;29;19919;-78
2024/01/13 07:05:29;;;;;;;;;;;;;;;6.71;100.00;100554.94;4925130;29;20022;-77
2024/01/13 07:07:55;;;;;;;;;;;;;;;6.77;100.00;100548.72;4924857;29;19925;-76
2024/01/13 07:10:20;;;;;;;;;;;;;;;6.82;100.00;100552.16;4924824;29;19923;-77
2024/01/13 07:12:46;;;;;;;;;;;;;;;6.85;100.00;100546.00;4925096;29;19926;-77
2024/01/13 07:15:11;;;;;;;;;;;;;;;6.87;100.00;100539.78;4924899;29;19966;-77
2024/01/13 07:17:36;;;;;;;;;;;;;;;6.88;100.00;100546.81;4926905;29;19985;-77
2024/01/13 07:20:03;;;;;;;;;;;;;;;6.91;100.00;100552.03;4928239;29;19950;-78
2024/01/13 07:22:29;;;;;;;;;;;;;;;6.94;100.00;100556.38;4928554;29;20382;-78
2024/01/13 07:24:55;;;;;;;;;;;;;;;6.94;100.00;100561.66;4928384;29;19969;-78
2024/01/13 07:27:20;;;;;;;;;;;;;;;6.97;100.00;100563.34;4927976;29;19923;-77
2024/01/13 07:29:45;;;;;;;;;;;;;;;6.98;100.00;100560.69;4928288;29;19926;-81
2024/01/13 07:32:12;;;;;;;;;;;;;;;7.03;100.00;100563.25;4927210;29;20433;-78
2024/01/13 07:34:38;;;;;;;;;;;;;;;7.02;100.00;100550.97;4927880;29;19923;-77
2024/01/13 07:37:03;;;;;;;;;;;;;;;7.08;100.00;100549.13;4927901;29;20010;-79
2024/01/13 07:39:28;;;;;;;;;;;;;;;7.11;100.00;100539.44;4928312;29;20358;-78
2024/01/13 07:41:53;;;;;;;;;;;;;;;7.09;100.00;100552.63;4910748;29;19926;-79
2024/01/13 07:44:19;;;;;;;;;;;;;;;7.12;100.00;100555.22;4927668;29;19919;-78
2024/01/13 07:46:44;;;;;;;;;;;;;;;7.13;100.00;100559.56;4926342;29;19930;-76
2024/01/13 07:49:09;;;;;;;;;;;;;;;7.14;100.00;100557.81;4928445;29;19919;-77
2024/01/13 07:51:35;;;;;;;;;;;;;;;7.16;100.00;100566.56;4928101;29;19923;-76
2024/01/13 07:54:00;;;;;;;;;;;;;;;7.18;100.00;100564.75;4927419;29;19925;-77
2024/01/13 07:56:25;;;;;;;;;;;;;;;7.19;100.00;100562.09;4934167;29;20268;-77
2024/01/13 07:58:51;;;;;;;;;;;;;;;7.21;100.00;100562.09;4918097;29;19919;-77
2024/01/13 08:01:18;;;;;;;;;;;;;;;7.22;100.00;100569.97;4926378;29;19975;-79
2024/01/13 08:39:18;;;;;;;;;;;;;;;5.23;100.00;100582.94;5645156;23;20015;-77
2024/01/13 08:41:43;;;;;;;;;;;;;;;5.19;100.00;100583.84;4916039;29;19930;-82
2024/01/13 08:44:08;;;;;;;;;;;;;;;5.16;100.00;100586.47;4917621;29;19931;-76
2024/01/13 08:46:34;;;;;;;;;;;;;;;5.11;100.00;100587.41;4917363;29;20026;-79
2024/01/13 08:48:59;;;;;;;;;;;;;;;5.07;100.00;100582.19;4900344;29;19927;-78
2024/01/13 08:51:25;;;;;;;;;;;;;;;5.07;100.00;100589.19;4916407;29;19920;-80
2024/01/13 08:53:50;;;;;;;;;;;;;;;4.99;100.00;100583.09;4915930;29;19919;-78
2024/01/13 08:56:15;;;;;;;;;;;;;;;5.01;100.00;100584.84;4917235;29;19919;-78
2024/01/13 08:58:41;;;;;;;;;;;;;;;4.98;100.00;100574.38;4917022;29;19923;-84
2024/01/13 09:01:07;;;;;;;;;;;;;;;4.93;100.00;100573.53;4900265;29;19933;-78
2024/01/13 09:03:32;;;;;;;;;;;;;;;4.98;100.00;100583.97;4916875;29;19958;-77
2024/01/13 09:05:57;;;;;;;;;;;;;;;4.92;100.00;100577.03;4916960;29;19930;-77
2024/01/13 09:08:23;;;;;;;;;;;;;;;4.94;100.00;100564.75;4898496;29;19926;-79
2024/01/13 09:10:48;;;;;;;;;;;;;;;4.95;100.00;100560.41;4916999;29;19923;-78
2024/01/13 09:13:13;;;;;;;;;;;;;;;4.88;100.00;100565.69;4916797;29;19919;-78
2024/01/13 09:15:39;;;;;;;;;;;;;;;4.83;100.00;100562.19;4916763;29;19927;-77
2024/01/13 09:18:04;;;;;;;;;;;;;;;4.84;100.00;100561.31;4916898;29;19919;-80
2024/01/13 09:20:29;;;;;;;;;;;;;;;4.83;100.00;100562.19;4916777;29;19927;-78
2024/01/13 09:22:55;;;;;;;;;;;;;;;4.80;100.00;100556.09;4898854;29;19919;-80
2024/01/13 09:25:20;;;;;;;;;;;;;;;4.78;100.00;100550.88;4915966;29;20002;-81
2024/01/13 09:27:45;;;;;;;;;;;;;;;4.80;100.00;100550.84;4916728;29;19919;-84
2024/01/13 09:30:11;;;;;;;;;;;;;;;4.79;100.00;100555.25;4916610;29;19966;-83
2024/01/13 09:32:36;;;;;;;;;;;;;;;4.73;100.00;100557.91;4916439;29;20073;-81
2024/01/13 09:35:02;;;;;;;;;;;;;;;4.71;100.00;100575.44;4916486;29;20345;-79
2024/01/13 09:37:27;;;;;;;;;;;;;;;4.73;100.00;100579.78;4916318;29;19926;-79
2024/01/13 09:39:53;;;;;;;;;;;;;;;4.75;100.00;100571.88;4914525;29;20010;-79
2024/01/13 09:42:30;;;;;;;;;;;;;;;4.71;100.00;100570.19;4915500;29;19919;-78
2024/01/13 09:44:55;;;;;;;;;;;;;;;4.69;100.00;100553.53;4899452;29;19920;-79
2024/01/13 09:47:20;;;;;;;;;;;;;;;4.67;100.00;100564.06;4916653;29;19930;-77
2024/01/13 09:49:46;;;;;;;;;;;;;;;4.66;100.00;100570.22;4916187;29;19923;-77
2024/01/13 09:52:12;;;;;;;;;;;;;;;4.66;100.00;100564.06;4916178;29;19927;-77
2024/01/13 09:54:38;;;;;;;;;;;;;;;4.67;100.00;100555.31;4914620;29;19974;-77
2024/01/13 09:57:04;;;;;;;;;;;;;;;4.63;100.00;100554.47;4916299;29;19923;-91
2024/01/13 09:59:42;;;;;;;;;;;;;;;4.65;100.00;100563.19;4898986;29;19923;-89
2024/01/13 10:02:12;;;;;;;;;;;;;;;4.65;100.00;100555.31;4915860;29;19991;-78
2024/01/13 10:04:37;;;;;;;;;;;;;;;4.63;100.00;100561.47;4915861;29;19919;-78
2024/01/13 10:07:02;;;;;;;;;;;;;;;4.66;100.00;100556.19;4916003;29;20272;-80
2024/01/13 10:09:28;;;;;;;;;;;;;;;4.63;100.00;100546.59;4914667;29;19963;-79
2024/01/13 10:11:54;;;;;;;;;;;;;;;4.64;100.00;100555.34;4916021;29;19927;-79
2024/01/13 10:14:19;;;;;;;;;;;;;;;4.63;100.00;100554.47;4915899;29;19962;-78
2024/01/13 10:16:44;;;;;;;;;;;;;;;4.58;100.00;100551.00;4915801;29;19923;-79
2024/01/13 10:19:09;;;;;;;;;;;;;;;4.57;100.00;100545.78;4915686;29;19930;-78
2024/01/13 10:21:38;;;;;;;;;;;;;;;4.58;100.00;100544.88;4915855;29;20010;-78
2024/01/13 10:24:04;;;;;;;;;;;;;;;4.56;100.00;100550.13;4914078;29;19930;-79
2024/01/13 10:26:30;;;;;;;;;;;;;;;4.53;100.00;100545.78;4915888;29;19923;-79
2024/01/13 10:28:56;;;;;;;;;;;;;;;4.54;100.00;100542.25;4915902;29;19919;-79
2024/01/13 10:31:22;;;;;;;;;;;;;;;4.59;100.00;100542.22;4915019;29;19919;-78
2024/01/13 10:33:48;;;;;;;;;;;;;;;4.55;100.00;100537.91;4915630;29;19930;-80
2024/01/13 10:36:19;;;;;;;;;;;;;;;4.52;100.00;100530.91;4916027;29;20355;-78
2024/01/13 10:38:44;;;;;;;;;;;;;;;4.50;100.00;100526.53;4913776;29;19931;-78
2024/01/13 10:41:09;;;;;;;;;;;;;;;4.55;100.00;100509.91;4898582;29;19931;-77
2024/01/13 10:43:38;;;;;;;;;;;;;;;4.52;100.00;100509.91;4915581;29;20481;-77
2024/01/13 10:46:06;;;;;;;;;;;;;;;4.53;100.00;100516.91;4915717;29;20397;-79
2024/01/13 10:48:36;;;;;;;;;;;;;;;4.54;100.00;100513.38;4915513;29;20347;-79
2024/01/13 10:51:02;;;;;;;;;;;;;;;4.52;100.00;100512.53;4918570;29;20001;-80
2024/01/13 10:53:29;;;;;;;;;;;;;;;4.51;100.00;100497.66;4918015;29;20327;-81
2024/01/13 10:55:56;;;;;;;;;;;;;;;4.54;100.00;100494.16;4918454;29;19923;-84
2024/01/13 10:58:21;;;;;;;;;;;;;;;4.56;100.00;100471.38;4919274;29;20291;-83
2024/01/13 11:00:47;;;;;;;;;;;;;;;4.50;100.00;100469.69;4919140;29;19929;-82
2024/01/13 11:03:14;;;;;;;;;;;;;;;4.49;100.00;100462.69;4919156;29;20282;-79
2024/01/13 11:05:39;;;;;;;;;;;;;;;4.49;100.00;100451.31;4919012;29;19935;-79
2024/01/13 11:08:06;;;;;;;;;;;;;;;4.50;100.00;100443.44;4901337;29;19919;-82
2024/01/13 11:10:34;;;;;;;;;;;;;;;4.45;100.00;100452.22;4918934;29;19963;-83
2024/01/13 11:13:02;;;;;;;;;;;;;;;4.43;100.00;100441.72;4918939;29;19947;-83
2024/01/13 11:15:42;;;;;;;;;;;;;;;4.47;100.00;100453.09;4918427;29;20096;-85
2024/01/13 11:18:07;;;;;;;;;;;;;;;4.46;100.00;100456.59;4918365;29;19919;-81
2024/01/13 11:20:51;;;;;;;;;;;;;;;4.47;100.00;100447.84;4918854;29;20008;-85
2024/01/13 11:23:17;;;;;;;;;;;;;;;4.48;100.00;100449.56;4917682;29;20286;-83
2024/01/13 11:25:42;;;;;;;;;;;;;;;4.47;100.00;100443.47;4901662;29;19919;-84
2024/01/13 11:28:12;;;;;;;;;;;;;;;4.46;100.00;100448.72;4901289;29;20037;-82
2024/01/13 11:30:38;;;;;;;;;;;;;;;4.47;100.00;100455.72;4917725;29;19970;-83
2024/01/13 11:33:04;;;;;;;;;;;;;;;4.49;100.00;100454.81;4918587;29;19926;-82
2024/01/13 11:35:29;;;;;;;;;;;;;;;4.44;100.00;100447.88;4901635;29;20025;-81
2024/01/13 11:37:55;;;;;;;;;;;;;;;4.43;100.00;100444.34;4901319;29;19923;-80
2024/01/13 11:40:20;;;;;;;;;;;;;;;4.44;100.00;100432.13;4917251;29;19982;-82
2024/01/13 11:42:46;;;;;;;;;;;;;;;4.40;100.00;100412.03;4918388;29;19923;-80
2024/01/13 11:45:14;;;;;;;;;;;;;;;4.42;100.00;100397.13;4918555;29;19919;-81
2024/01/13 11:47:39;;;;;;;;;;;;;;;4.41;100.00;100390.16;4917797;29;19935;-83
2024/01/13 11:50:23;;;;;;;;;;;;;;;4.39;100.00;100390.16;4918389;29;19974;-83
2024/01/13 11:52:48;;;;;;;;;;;;;;;4.41;100.00;100383.16;4918221;29;19983;-81
2024/01/13 11:55:14;;;;;;;;;;;;;;;4.39;100.00;100369.19;4916916;29;20312;-79
2024/01/13 11:57:40;;;;;;;;;;;;;;;4.42;100.00;100358.66;4918220;29;19926;-80
2024/01/13 12:00:06;;;;;;;;;;;;;;;4.40;100.00;100355.16;4918048;29;19958;-82
2024/01/13 12:02:31;;;;;;;;;;;;;;;4.40;100.00;100349.91;4900551;29;19919;-82
2024/01/13 12:04:57;;;;;;;;;;;;;;;4.43;100.00;100346.41;4917994;29;19926;-79
2024/01/13 12:07:22;;;;;;;;;;;;;;;4.41;100.00;100348.19;4900957;29;20386;-84
2024/01/13 12:09:47;;;;;;;;;;;;;;;4.39;100.00;100324.56;4916621;29;19915;-81
2024/01/13 12:12:13;;;;;;;;;;;;;;;4.42;100.00;100329.78;4918025;29;20371;-79
2024/01/13 12:14:38;;;;;;;;;;;;;;;4.48;100.00;100339.34;4900599;29;20367;-82
2024/01/13 12:17:04;;;;;;;;;;;;;;;4.41;100.00;100337.69;4917976;29;19919;-81
2024/01/13 12:19:36;;;;;;;;;;;;;;;4.43;100.00;100344.63;4917914;29;19923;-81
2024/01/13 12:22:01;;;;;;;;;;;;;;;4.40;100.00;100333.31;4900183;29;20279;-81
2024/01/13 12:24:30;;;;;;;;;;;;;;;4.38;100.00;100328.06;4916360;29;19920;-83
2024/01/13 12:26:55;;;;;;;;;;;;;;;4.40;100.00;100341.19;4917591;29;19920;-82
2024/01/13 12:29:24;;;;;;;;;;;;;;;4.42;100.00;100335.03;4917827;29;20296;-82
2024/01/13 12:31:49;;;;;;;;;;;;;;;4.45;100.00;100350.75;4917582;29;19967;-84
2024/01/13 12:34:15;;;;;;;;;;;;;;;4.46;100.00;100336.75;4917587;29;19973;-81
2024/01/13 12:36:40;;;;;;;;;;;;;;;4.45;100.00;100332.41;4917522;29;19919;-81
2024/01/13 12:39:06;;;;;;;;;;;;;;;4.41;100.00;100343.78;4916198;29;20407;-82
2024/01/13 12:41:32;;;;;;;;;;;;;;;4.45;100.00;100342.88;4899685;29;19930;-81
2024/01/13 12:43:59;;;;;;;;;;;;;;;4.42;100.00;100342.91;4917307;29;19950;-82
2024/01/13 12:46:24;;;;;;;;;;;;;;;4.43;100.00;100341.16;4917407;29;19923;-82
2024/01/13 12:48:49;;;;;;;;;;;;;;;4.39;100.00;100345.56;4917301;29;19930;-82
2024/01/13 12:51:14;;;;;;;;;;;;;;;4.35;100.00;100349.94;4917409;29;19923;-79
2024/01/13 12:53:45;;;;;;;;;;;;;;;4.40;100.00;100346.44;4915957;29;19926;-78
2024/01/13 12:56:10;;;;;;;;;;;;;;;4.35;100.00;100333.34;4917234;29;19919;-79
2024/01/13 12:58:35;;;;;;;;;;;;;;;4.39;100.00;100342.94;4917202;29;19923;-78
2024/01/13 13:01:01;;;;;;;;;;;;;;;4.42;100.00;100335.03;4917050;29;20311;-79
2024/01/13 13:03:26;;;;;;;;;;;;;;;4.38;100.00;100324.59;4917098;29;19923;-81
2024/01/13 13:05:51;;;;;;;;;;;;;;;4.34;100.00;100326.34;4917025;29;19919;-81
2024/01/13 13:08:16;;;;;;;;;;;;;;;4.36;100.00;100320.22;4915692;29;19919;-80
2024/01/13 13:10:42;;;;;;;;;;;;;;;4.39;100.00;100313.19;4916991;29;19919;-79
2024/01/13 13:13:07;;;;;;;;;;;;;;;4.38;100.00;100306.22;4916177;29;20002;-81
2024/01/13 13:15:33;;;;;;;;;;;;;;;4.33;100.00;100303.63;4916756;29;19923;-82
2024/01/13 13:17:58;;;;;;;;;;;;;;;4.35;100.00;100301.84;4916623;29;19915;-79
2024/01/13 13:20:23;;;;;;;;;;;;;;;4.37;100.00;100300.06;4899654;29;19966;-82
2024/01/13 13:22:48;;;;;;;;;;;;;;;4.34;100.00;100303.63;4916528;29;20421;-82
2024/01/13 13:25:15;;;;;;;;;;;;;;;4.32;100.00;100302.78;4915511;29;20391;-82
2024/01/13 13:27:40;;;;;;;;;;;;;;;4.31;100.00;100290.53;4916457;29;19927;-80
2024/01/13 13:30:06;;;;;;;;;;;;;;;4.32;100.00;100284.41;4899304;29;19925;-81
2024/01/13 13:32:32;;;;;;;;;;;;;;;4.40;100.00;100281.69;4916558;29;20371;-78
2024/01/13 13:34:58;;;;;;;;;;;;;;;4.33;100.00;100293.13;4916469;29;19999;-81
2024/01/13 13:37:23;;;;;;;;;;;;;;;4.31;100.00;100287.91;4899416;29;20260;-79
2024/01/13 13:39:48;;;;;;;;;;;;;;;4.32;100.00;100286.13;4914997;29;19931;-80
2024/01/13 13:42:14;;;;;;;;;;;;;;;4.30;100.00;100277.41;4916307;29;19923;-80
2024/01/13 13:44:40;;;;;;;;;;;;;;;4.33;100.00;100273.00;4899425;29;19930;-81
2024/01/13 13:47:05;;;;;;;;;;;;;;;4.32;100.00;100271.28;4916252;29;19923;-83
2024/01/13 13:49:30;;;;;;;;;;;;;;;4.31;100.00;100268.69;4916356;29;20378;-80
2024/01/13 13:51:57;;;;;;;;;;;;;;;4.34;100.00;100258.13;4916123;29;19923;-80
2024/01/13 13:54:22;;;;;;;;;;;;;;;4.32;100.00;100257.28;4914905;29;19930;-80
2024/01/13 13:56:48;;;;;;;;;;;;;;;4.27;100.00;100262.56;4916026;29;19919;-80
2024/01/13 13:59:13;;;;;;;;;;;;;;;4.26;100.00;100263.47;4916016;29;19925;-81
2024/01/13 14:01:38;;;;;;;;;;;;;;;4.29;100.00;100263.44;4916374;29;19926;-81
2024/01/13 14:04:04;;;;;;;;;;;;;;;4.29;100.00;100257.31;4916064;29;19930;-80
2024/01/13 14:06:29;;;;;;;;;;;;;;;4.34;100.00;100263.38;4899178;29;20383;-80
2024/01/13 14:08:55;;;;;;;;;;;;;;;4.29;100.00;100259.94;4897553;29;19975;-81
2024/01/13 14:11:20;;;;;;;;;;;;;;;4.29;100.00;100254.69;4890793;29;19923;-81
2024/01/13 14:13:45;;;;;;;;;;;;;;;4.28;100.00;100253.81;4915868;29;19919;-80
2024/01/13 14:16:11;;;;;;;;;;;;;;;4.27;100.00;100259.94;4915844;29;19923;-79
2024/01/13 14:18:36;;;;;;;;;;;;;;;4.29;100.00;100255.56;4915772;29;19919;-79
2024/01/13 14:21:01;;;;;;;;;;;;;;;4.35;100.00;100254.63;4915560;29;19923;-81
2024/01/13 14:23:26;;;;;;;;;;;;;;;4.31;100.00;100252.94;4914370;29;19978;-80
2024/01/13 14:25:52;;;;;;;;;;;;;;;4.30;100.00;100262.53;4915457;29;19927;-79
2024/01/13 14:28:18;;;;;;;;;;;;;;;4.28;100.00;100252.97;4915772;29;19920;-79
2024/01/13 14:30:44;;;;;;;;;;;;;;;4.34;100.00;100251.16;4915631;29;20324;-79
2024/01/13 14:33:09;;;;;;;;;;;;;;;4.34;100.00;100247.63;4898512;29;19923;-79
2024/01/13 14:35:34;;;;;;;;;;;;;;;4.34;100.00;100255.50;4898725;29;19923;-79
2024/01/13 14:38:00;;;;;;;;;;;;;;;4.26;100.00;100244.22;4914720;29;20371;-79
2024/01/13 14:40:26;;;;;;;;;;;;;;;4.30;100.00;100245.94;4914324;29;19927;-79
2024/01/13 14:42:51;;;;;;;;;;;;;;;4.25;100.00;100247.75;4914805;29;19942;-78
2024/01/13 14:45:16;;;;;;;;;;;;;;;4.27;100.00;100253.84;4890627;29;20389;-80
2024/01/13 14:47:42;;;;;;;;;;;;;;;4.23;100.00;100245.13;4915755;29;20393;-80
2024/01/13 14:50:07;;;;;;;;;;;;;;;4.20;100.00;100250.41;4898638;29;20017;-80
2024/01/13 14:52:34;;;;;;;;;;;;;;;4.23;100.00;100250.38;4915491;29;19930;-79
2024/01/13 14:54:59;;;;;;;;;;;;;;;4.22;100.00;100243.38;4914494;29;20268;-79
2024/01/13 14:57:24;;;;;;;;;;;;;;;4.25;100.00;100239.88;4915700;29;20013;-79
2024/01/13 14:59:50;;;;;;;;;;;;;;;4.23;100.00;100234.66;4915568;29;19930;-78
2024/01/13 15:02:19;;;;;;;;;;;;;;;4.24;100.00;100233.75;4898521;29;20274;-79
2024/01/13 15:04:45;;;;;;;;;;;;;;;4.26;100.00;100238.97;4915066;29;19971;-79
2024/01/13 15:07:11;;;;;;;;;;;;;;;4.22;100.00;100239.91;4915347;29;19923;-82
2024/01/13 15:09:37;;;;;;;;;;;;;;;4.24;100.00;100235.50;4914299;29;19926;-78
2024/01/13 15:12:02;;;;;;;;;;;;;;;4.23;100.00;100233.75;4915364;29;19926;-81
2024/01/13 15:14:28;;;;;;;;;;;;;;;4.25;100.00;100222.38;4915333;29;19923;-78
2024/01/13 15:16:53;;;;;;;;;;;;;;;4.19;100.00;100228.53;4914511;29;20359;-78
2024/01/13 15:19:19;;;;;;;;;;;;;;;4.19;100.00;100215.41;4915195;29;19918;-79
2024/01/13 15:21:47;;;;;;;;;;;;;;;4.26;100.00;100213.63;4915303;29;19923;-82
2024/01/13 15:24:12;;;;;;;;;;;;;;;4.24;100.00;100214.53;4914014;29;20375;-82
2024/01/13 15:26:38;;;;;;;;;;;;;;;4.22;100.00;100221.53;4898262;29;19930;-83
2024/01/13 15:29:03;;;;;;;;;;;;;;;4.23;100.00;100218.91;4915239;29;19919;-83
2024/01/13 15:31:28;;;;;;;;;;;;;;;4.19;100.00;100223.28;4898434;29;19925;-78
2024/01/13 15:33:53;;;;;;;;;;;;;;;4.17;100.00;100225.06;4914180;29;20014;-78
2024/01/13 15:36:19;;;;;;;;;;;;;;;4.28;100.00;100227.59;4915152;29;19929;-79
2024/01/13 15:38:44;;;;;;;;;;;;;;;4.17;100.00;100225.06;4917303;29;20351;-79
2024/01/13 15:41:09;;;;;;;;;;;;;;;4.27;100.00;100231.09;4918352;29;20004;-78
2024/01/13 15:43:34;;;;;;;;;;;;;;;4.28;100.00;100229.34;4901522;29;19919;-79
2024/01/13 15:46:00;;;;;;;;;;;;;;;4.25;100.00;100238.13;4918304;29;20013;-78
2024/01/13 15:48:25;;;;;;;;;;;;;;;4.24;100.00;100243.38;4918451;29;19923;-84
2024/01/13 15:50:50;;;;;;;;;;;;;;;4.21;100.00;100240.78;4918243;29;19999;-82
2024/01/13 15:53:15;;;;;;;;;;;;;;;4.19;100.00;100236.41;4916855;29;19919;-82
2024/01/13 15:55:41;;;;;;;;;;;;;;;4.19;100.00;100239.03;4918220;29;19919;-83
2024/01/13 15:58:06;;;;;;;;;;;;;;;4.21;100.00;100240.78;4901144;29;19943;-82
2024/01/13 16:00:31;;;;;;;;;;;;;;;4.20;100.00;100237.28;4918176;29;19984;-81
2024/01/13 16:02:56;;;;;;;;;;;;;;;4.21;100.00;100227.66;4918052;29;20275;-81
2024/01/13 16:05:22;;;;;;;;;;;;;;;4.19;100.00;100215.41;4917916;29;20303;-79
2024/01/13 16:07:48;;;;;;;;;;;;;;;4.24;100.00;100214.53;4918084;29;20290;-77
2024/01/13 16:10:13;;;;;;;;;;;;;;;4.24;100.00;100210.13;4899697;29;19922;-79
2024/01/13 16:12:39;;;;;;;;;;;;;;;4.17;100.00;100209.31;4918027;29;19923;-84
2024/01/13 16:15:05;;;;;;;;;;;;;;;4.17;100.00;100197.97;4916661;29;20396;-80
2024/01/13 16:17:39;;;;;;;;;;;;;;;4.22;100.00;100203.19;4900915;29;19923;-81
2024/01/13 16:20:06;;;;;;;;;;;;;;;4.17;100.00;100198.84;4917809;29;19926;-78
2024/01/13 16:22:31;;;;;;;;;;;;;;;4.22;100.00;100190.06;4917896;29;20013;-78
2024/01/13 16:24:56;;;;;;;;;;;;;;;4.21;100.00;100198.81;4916486;29;20326;-78
2024/01/13 16:27:21;;;;;;;;;;;;;;;4.20;100.00;100205.81;4917548;29;20348;-80
2024/01/13 16:29:48;;;;;;;;;;;;;;;4.21;100.00;100188.31;4917476;29;19990;-80
2024/01/13 16:32:14;;;;;;;;;;;;;;;4.19;100.00;100194.44;4900339;29;19931;-77
2024/01/13 16:34:39;;;;;;;;;;;;;;;4.21;100.00;100204.06;4900519;29;20386;-84
2024/01/13 16:37:05;;;;;;;;;;;;;;;4.20;100.00;100211.06;4917347;29;20013;-81
2024/01/13 16:39:30;;;;;;;;;;;;;;;4.14;100.00;100209.34;4915956;29;19919;-78
2024/01/13 16:41:55;;;;;;;;;;;;;;;4.17;100.00;100197.97;4917517;29;20009;-77
2024/01/13 16:44:21;;;;;;;;;;;;;;;4.18;100.00;100199.72;4917774;29;20393;-93
2024/01/13 16:46:46;;;;;;;;;;;;;;;4.19;100.00;100204.06;4900402;29;20390;-79
2024/01/13 16:49:11;;;;;;;;;;;;;;;4.16;100.00;100196.22;4900050;29;19927;-76
2024/01/13 16:51:39;;;;;;;;;;;;;;;4.18;100.00;100203.22;4917227;29;19919;-78
2024/01/13 16:54:04;;;;;;;;;;;;;;;4.16;100.00;100198.84;4898672;29;19919;-78
2024/01/13 16:56:29;;;;;;;;;;;;;;;4.15;100.00;100195.38;4917055;29;20303;-79
2024/01/13 16:58:55;;;;;;;;;;;;;;;4.18;100.00;100200.59;4917118;29;19958;-79
2024/01/13 17:01:20;;;;;;;;;;;;;;;4.12;100.00;100199.78;4916987;29;19930;-78
2024/01/13 17:03:46;;;;;;;;;;;;;;;4.18;100.00;100203.22;4917091;29;19923;-77
2024/01/13 17:06:11;;;;;;;;;;;;;;;4.13;100.00;100207.63;4916066;29;20370;-77
2024/01/13 17:08:37;;;;;;;;;;;;;;;4.14;100.00;100208.50;4915778;29;20006;-78